createdAt,value
2022-10-18T00:01:00.735Z,7.10
2022-10-18T00:03:31.567Z,8.32
2022-10-18T00:06:09.575Z,7.25
2022-10-18T00:08:42.471Z,7.15
2022-10-18T00:11:13.423Z,8.20
2022-10-18T00:13:44.828Z,7.38
2022-10-18T00:16:25.798Z,7.57
2022-10-18T00:18:58.944Z,7.80
2022-10-18T00:21:39.421Z,7.43
2022-10-18T00:24:11.027Z,6.82
2022-10-18T00:26:45.954Z,6.72
2022-10-18T00:29:28.805Z,6.95
2022-10-18T00:32:19.777Z,5.95
2022-10-18T00:35:00.420Z,7.20
2022-10-18T00:37:38.534Z,6.50
2022-10-18T00:40:19.912Z,7.00
2022-10-18T00:42:56.413Z,6.88
2022-10-18T00:45:43.699Z,6.57
2022-10-18T00:48:15.084Z,6.60
2022-10-18T00:50:49.676Z,7.10
2022-10-18T00:53:32.113Z,6.75
2022-10-18T00:56:03.214Z,6.13
2022-10-18T00:58:43.373Z,5.97
2022-10-18T01:01:25.958Z,6.13
2022-10-18T01:04:22.175Z,7.30
2022-10-18T01:07:15.243Z,6.47
2022-10-18T01:10:11.754Z,6.55
2022-10-18T01:12:52.031Z,5.55
2022-10-18T01:15:43.457Z,5.82
2022-10-18T01:18:25.067Z,5.82
2022-10-18T01:21:28.167Z,5.57
2022-10-18T01:24:51.779Z,5.82
2022-10-18T01:28:08.038Z,5.43
2022-10-18T01:31:12.768Z,5.00
2022-10-18T01:33:49.454Z,5.20
2022-10-18T01:36:27.648Z,5.32
2022-10-18T01:39:08.306Z,5.10
2022-10-18T01:41:52.083Z,6.10
2022-10-18T01:44:35.444Z,5.38
2022-10-18T01:50:03.470Z,5.82
2022-10-18T01:52:34.738Z,5.32
2022-10-18T01:55:14.402Z,5.55
2022-10-18T01:57:50.204Z,5.28
2022-10-18T02:00:30.880Z,5.38
2022-10-18T02:03:14.956Z,5.85
2022-10-18T02:05:51.918Z,5.63
2022-10-18T02:08:33.982Z,5.18
2022-10-18T02:11:11.512Z,5.55
2022-10-18T02:13:53.823Z,5.60
2022-10-18T02:19:20.488Z,5.70
2022-10-18T02:21:55.720Z,5.43
2022-10-18T02:24:35.873Z,5.68
2022-10-18T02:27:11.614Z,5.10
2022-10-18T02:29:45.863Z,5.60
2022-10-18T02:32:28.445Z,5.40
2022-10-18T02:35:10.949Z,5.50
2022-10-18T02:37:46.896Z,6.20
2022-10-18T02:40:22.358Z,5.93
2022-10-18T02:43:06.287Z,6.72
2022-10-18T02:45:37.498Z,5.68
2022-10-18T02:48:13.383Z,6.65
2022-10-18T02:51:01.628Z,7.30
2022-10-18T02:53:37.456Z,6.20
2022-10-18T02:56:31.732Z,6.47
2022-10-18T02:59:05.260Z,6.68
2022-10-18T03:01:44.788Z,6.53
2022-10-18T03:04:14.626Z,6.47
2022-10-18T03:07:04.030Z,6.00
2022-10-18T03:09:36.654Z,6.43
2022-10-18T03:12:07.861Z,6.57
2022-10-18T03:14:43.661Z,6.60
2022-10-18T03:17:20.938Z,7.00
2022-10-18T03:19:52.309Z,7.72
2022-10-18T03:22:41.586Z,7.68
2022-10-18T03:25:20.428Z,7.30
2022-10-18T03:27:51.995Z,7.68
2022-10-18T03:30:35.479Z,6.90
2022-10-18T03:33:05.571Z,7.10
2022-10-18T03:36:00.814Z,7.78
2022-10-18T03:38:39.179Z,7.20
2022-10-18T03:41:20.712Z,7.47
2022-10-18T03:43:59.339Z,6.97
2022-10-18T03:46:28.852Z,7.40
2022-10-18T03:49:12.201Z,7.53
2022-10-18T03:54:45.165Z,7.35
2022-10-18T03:57:35.874Z,7.28
2022-10-18T04:00:18.029Z,7.47
2022-10-18T04:05:39.267Z,7.07
2022-10-18T04:08:22.022Z,6.70
2022-10-18T04:11:06.510Z,7.65
2022-10-18T04:13:49.260Z,7.30
2022-10-18T04:16:33.462Z,7.32
2022-10-18T04:19:07.153Z,6.80
2022-10-18T04:21:40.462Z,7.57
2022-10-18T04:24:12.030Z,7.00
2022-10-18T04:26:46.272Z,7.65
2022-10-18T04:29:22.286Z,7.45
2022-10-18T04:31:54.333Z,7.03
2022-10-18T04:34:39.503Z,6.72
2022-10-18T04:37:10.742Z,7.10
2022-10-18T04:39:56.126Z,7.03
2022-10-18T04:42:33.403Z,7.15
2022-10-18T04:45:13.554Z,6.68
2022-10-18T04:47:49.450Z,7.30
2022-10-18T04:50:23.939Z,7.35
2022-10-18T04:53:05.382Z,6.63
2022-10-18T04:55:42.713Z,7.68
2022-10-18T04:58:20.670Z,7.47
2022-10-18T05:00:56.169Z,7.55
2022-10-18T05:03:44.303Z,8.65
2022-10-18T05:06:23.953Z,7.32
2022-10-18T05:09:00.289Z,7.82
2022-10-18T05:11:38.724Z,8.70
2022-10-18T05:14:20.497Z,8.98
2022-10-18T05:16:57.428Z,10.18
2022-10-18T05:19:28.887Z,10.95
2022-10-18T05:22:00.860Z,9.75
2022-10-18T05:24:36.985Z,10.88
2022-10-18T05:27:07.997Z,11.90
2022-10-18T05:29:50.734Z,10.88
2022-10-18T05:32:31.740Z,17.33
2022-10-18T05:35:03.540Z,11.20
2022-10-18T05:37:37.654Z,10.80
2022-10-18T05:40:24.491Z,10.30
2022-10-18T05:42:58.974Z,8.52
2022-10-18T05:45:37.354Z,8.73
2022-10-18T05:48:11.523Z,8.18
2022-10-18T05:50:41.020Z,7.90
2022-10-18T05:53:18.504Z,8.43
2022-10-18T05:56:07.760Z,8.07
2022-10-18T05:58:38.623Z,7.68
2022-10-18T06:01:14.745Z,7.95
2022-10-18T06:03:44.682Z,7.20
2022-10-18T06:06:20.556Z,7.43
2022-10-18T06:08:57.443Z,6.82
2022-10-18T06:11:27.974Z,7.97
2022-10-18T06:14:11.637Z,6.93
2022-10-18T06:16:49.458Z,6.55
2022-10-18T06:19:20.676Z,7.00
2022-10-18T06:22:08.370Z,7.32
2022-10-18T06:24:37.664Z,7.20
2022-10-18T06:27:15.062Z,7.00
2022-10-18T06:29:51.862Z,6.53
2022-10-18T06:32:26.496Z,6.50
2022-10-18T06:34:55.266Z,7.53
2022-10-18T06:37:26.832Z,6.80
2022-10-18T06:39:58.016Z,8.02
2022-10-18T06:42:29.102Z,7.05
2022-10-18T06:44:57.687Z,7.38
2022-10-18T06:47:30.817Z,8.35
2022-10-18T06:49:59.903Z,8.43
2022-10-18T06:52:32.538Z,7.13
2022-10-18T06:55:01.140Z,7.35
2022-10-18T06:57:32.911Z,7.45
2022-10-18T07:00:05.368Z,7.28
2022-10-18T07:02:37.864Z,7.10
2022-10-18T07:05:15.418Z,7.03
2022-10-18T07:07:51.739Z,8.27
2022-10-18T07:10:27.820Z,7.55
2022-10-18T07:13:19.980Z,7.22
2022-10-18T07:15:49.195Z,8.27
2022-10-18T07:18:25.013Z,7.97
2022-10-18T07:20:57.066Z,8.75
2022-10-18T07:23:30.514Z,8.07
2022-10-18T07:26:01.002Z,9.52
2022-10-18T07:28:34.750Z,9.45
2022-10-18T07:31:08.723Z,10.50
2022-10-18T07:33:43.653Z,10.27
2022-10-18T07:36:18.453Z,10.52
2022-10-18T07:38:50.187Z,11.23
2022-10-18T07:41:19.458Z,11.85
2022-10-18T07:43:51.073Z,10.98
2022-10-18T07:46:20.801Z,12.20
2022-10-18T07:48:56.548Z,11.38
2022-10-18T07:51:28.233Z,11.85
2022-10-18T07:53:57.451Z,11.43
2022-10-18T07:56:26.653Z,11.15
2022-10-18T07:58:57.194Z,11.32
2022-10-18T08:01:38.266Z,10.93
2022-10-18T08:04:15.498Z,11.30
2022-10-18T08:06:50.731Z,11.27
2022-10-18T08:09:23.615Z,12.05
2022-10-18T08:11:52.294Z,11.82
2022-10-18T08:14:25.643Z,11.73
2022-10-18T08:16:53.985Z,11.15
2022-10-18T08:19:30.087Z,11.52
2022-10-18T08:22:04.327Z,12.45
2022-10-18T08:24:35.626Z,12.20
2022-10-18T08:27:10.325Z,11.85
2022-10-18T08:29:45.554Z,10.55
2022-10-18T08:32:16.997Z,10.95
2022-10-18T08:34:53.861Z,10.80
2022-10-18T08:37:29.350Z,11.13
2022-10-18T08:40:04.428Z,10.77
2022-10-18T08:42:58.737Z,10.68
2022-10-18T08:45:47.409Z,10.63
2022-10-18T08:48:24.200Z,11.38
2022-10-18T08:51:05.281Z,10.57
2022-10-18T08:53:50.835Z,10.93
2022-10-18T08:56:24.617Z,10.75
2022-10-18T08:59:02.816Z,9.63
2022-10-18T09:01:43.751Z,8.85
2022-10-18T09:04:33.537Z,8.98
2022-10-18T09:07:25.058Z,8.30
2022-10-18T09:10:04.958Z,6.63
2022-10-18T09:12:54.443Z,6.38
2022-10-18T09:15:35.022Z,6.25
2022-10-18T09:18:23.334Z,5.78
2022-10-18T09:21:01.025Z,8.23
2022-10-18T09:23:44.367Z,8.30
2022-10-18T09:28:55.257Z,7.65
2022-10-18T09:31:31.992Z,7.53
2022-10-18T09:34:07.100Z,7.32
2022-10-18T09:36:46.059Z,7.95
2022-10-18T09:39:22.326Z,6.70
2022-10-18T09:41:55.992Z,7.05
2022-10-18T09:44:31.247Z,7.53
2022-10-18T09:47:02.081Z,6.43
2022-10-18T09:49:36.009Z,7.55
2022-10-18T09:52:19.804Z,7.43
2022-10-18T09:54:59.109Z,6.50
2022-10-18T09:57:35.520Z,6.38
2022-10-18T10:00:13.247Z,7.03
2022-10-18T10:02:46.464Z,6.72
2022-10-18T10:05:21.094Z,6.40
2022-10-18T10:07:59.915Z,6.47
2022-10-18T10:10:44.273Z,7.25
2022-10-18T10:13:28.965Z,6.35
2022-10-18T10:16:04.003Z,6.10
2022-10-18T10:18:36.427Z,6.75
2022-10-18T10:21:11.095Z,7.05
2022-10-18T10:23:56.614Z,7.22
2022-10-18T10:26:34.509Z,6.18
2022-10-18T10:29:13.270Z,6.60
2022-10-18T10:34:37.292Z,6.82
2022-10-18T10:37:32.773Z,6.28
2022-10-18T10:40:27.855Z,7.38
2022-10-18T10:43:36.571Z,6.88
2022-10-18T10:46:08.575Z,6.20
2022-10-18T10:48:49.571Z,7.10
2022-10-18T10:51:28.901Z,6.78
2022-10-18T10:54:01.250Z,6.20
2022-10-18T10:56:31.971Z,6.88
2022-10-18T10:59:09.401Z,4.95
2022-10-18T11:01:37.680Z,3.88
2022-10-18T11:04:29.450Z,3.70
2022-10-18T11:07:05.651Z,3.50
2022-10-18T11:09:45.865Z,3.80
2022-10-18T11:12:30.651Z,3.80
2022-10-18T11:15:21.830Z,4.05
2022-10-18T11:18:02.660Z,3.65
2022-10-18T11:20:37.347Z,3.55
2022-10-18T11:23:13.576Z,3.72
2022-10-18T11:26:24.206Z,4.10
2022-10-18T11:29:08.270Z,3.70
2022-10-18T11:31:47.162Z,3.50
2022-10-18T11:34:31.777Z,3.20
2022-10-18T11:37:39.461Z,3.50
2022-10-18T11:40:16.535Z,3.90
2022-10-18T11:42:55.146Z,3.70
2022-10-18T11:45:37.507Z,3.10
2022-10-18T11:48:26.424Z,2.50
2022-10-18T11:51:07.923Z,3.60
2022-10-18T11:53:52.098Z,3.00
2022-10-18T11:56:31.217Z,2.67
2022-10-18T11:59:22.245Z,2.75
2022-10-18T12:02:06.991Z,3.08
2022-10-18T12:04:53.038Z,3.03
2022-10-18T12:07:35.618Z,2.67
2022-10-18T12:10:09.339Z,2.15
2022-10-18T12:12:43.401Z,2.50
2022-10-18T12:15:21.657Z,2.00
2022-10-18T12:17:54.610Z,1.90
2022-10-18T12:23:07.600Z,2.28
2022-10-18T12:25:41.533Z,2.28
2022-10-18T12:28:22.811Z,2.10
2022-10-18T12:31:02.351Z,2.35
2022-10-18T12:33:37.477Z,2.15
2022-10-18T12:36:27.548Z,2.30
2022-10-18T12:39:03.600Z,2.30
2022-10-18T12:41:35.764Z,2.47
2022-10-18T12:44:07.548Z,2.07
2022-10-18T12:46:49.580Z,2.22
2022-10-18T12:49:24.107Z,2.10
2022-10-18T12:51:59.226Z,2.67
2022-10-18T12:54:34.651Z,2.13
2022-10-18T12:57:07.661Z,2.15
2022-10-18T12:59:45.149Z,2.22
2022-10-18T13:02:32.532Z,2.10
2022-10-18T13:05:02.778Z,2.08
2022-10-18T13:07:56.946Z,2.50
2022-10-18T13:10:40.701Z,2.30
2022-10-18T13:13:42.171Z,2.15
2022-10-18T13:16:28.018Z,2.10
2022-10-18T13:19:03.263Z,2.20
2022-10-18T13:21:44.811Z,2.65
2022-10-18T13:24:32.096Z,2.28
2022-10-18T13:27:37.012Z,2.38
2022-10-18T13:30:53.491Z,2.22
2022-10-18T13:33:38.400Z,2.10
2022-10-18T13:36:27.387Z,2.22
2022-10-18T13:39:07.961Z,1.95
2022-10-18T13:42:14.963Z,2.22
2022-10-18T13:45:14.898Z,1.85
2022-10-18T13:47:52.604Z,1.77
2022-10-18T13:50:35.622Z,2.15
2022-10-18T13:56:06.962Z,1.90
2022-10-18T13:58:53.820Z,1.98
2022-10-18T14:01:45.925Z,1.80
2022-10-18T14:04:51.182Z,1.70
2022-10-18T14:07:27.148Z,1.90
2022-10-18T14:10:01.808Z,2.17
2022-10-18T14:12:45.951Z,2.00
2022-10-18T14:15:19.271Z,2.00
2022-10-18T14:17:54.810Z,1.67
2022-10-18T14:20:40.029Z,2.00
2022-10-18T14:23:23.797Z,1.98
2022-10-18T14:25:56.803Z,1.70
2022-10-18T14:31:25.147Z,1.63
2022-10-18T14:33:58.255Z,1.42
2022-10-18T14:36:37.759Z,1.45
2022-10-18T14:39:09.800Z,1.50
2022-10-18T14:41:49.206Z,1.60
2022-10-18T14:44:21.925Z,1.50
2022-10-18T14:46:53.357Z,1.23
2022-10-18T14:49:22.844Z,1.67
2022-10-18T14:51:58.059Z,1.35
2022-10-18T14:54:32.068Z,1.40
2022-10-18T14:57:01.950Z,1.60
2022-10-18T14:59:37.325Z,1.50
2022-10-18T15:02:21.425Z,1.60
2022-10-18T15:04:59.502Z,1.67
2022-10-18T15:07:36.929Z,1.25
2022-10-18T15:10:17.775Z,1.58
2022-10-18T15:13:08.703Z,1.50
2022-10-18T15:15:38.367Z,1.35
2022-10-18T15:18:09.024Z,0.95
2022-10-18T15:20:42.675Z,1.15
2022-10-18T15:23:25.730Z,1.20
2022-10-18T15:26:11.072Z,1.60
2022-10-18T15:28:51.763Z,1.90
2022-10-18T15:31:29.141Z,1.90
2022-10-18T15:34:14.814Z,1.30
2022-10-18T15:36:46.484Z,1.13
2022-10-18T15:39:20.316Z,1.20
2022-10-18T15:41:53.450Z,1.20
2022-10-18T15:44:37.611Z,1.08
2022-10-18T15:47:24.524Z,1.20
2022-10-18T15:50:00.590Z,1.30
2022-10-18T15:52:41.354Z,1.00
2022-10-18T15:55:52.433Z,1.23
2022-10-18T15:58:32.661Z,1.88
2022-10-18T16:01:05.642Z,1.98
2022-10-18T16:06:18.040Z,2.17
2022-10-18T16:09:02.581Z,2.95
2022-10-18T16:11:38.008Z,2.35
2022-10-18T16:14:09.037Z,1.67
2022-10-18T16:16:40.044Z,2.00
2022-10-18T16:19:11.359Z,1.90
2022-10-18T16:21:43.802Z,2.35
2022-10-18T16:24:13.074Z,2.08
2022-10-18T16:26:45.031Z,1.77
2022-10-18T16:29:18.139Z,1.42
2022-10-18T16:34:22.696Z,1.52
2022-10-18T16:36:53.318Z,1.52
2022-10-18T16:39:32.081Z,1.05
2022-10-18T16:42:04.877Z,1.02
2022-10-18T16:44:36.825Z,1.00
2022-10-18T16:47:09.314Z,1.00
2022-10-18T16:49:38.313Z,1.00
2022-10-18T16:52:09.186Z,1.20
2022-10-18T16:54:40.732Z,0.90
2022-10-18T16:57:13.752Z,1.05
2022-10-18T16:59:45.740Z,1.15
2022-10-18T17:02:14.840Z,1.30
2022-10-18T17:04:56.923Z,1.70
2022-10-18T17:07:31.587Z,2.00
2022-10-18T17:10:24.179Z,1.75
2022-10-18T17:13:03.338Z,1.80
2022-10-18T17:15:40.788Z,1.67
2022-10-18T17:18:23.750Z,0.93
2022-10-18T17:20:59.469Z,1.20
2022-10-18T17:23:32.378Z,1.10
2022-10-18T17:26:27.655Z,1.40
2022-10-18T17:29:13.327Z,1.00
2022-10-18T17:31:46.425Z,1.50
2022-10-18T17:37:18.408Z,5.63
2022-10-18T17:40:01.309Z,6.22
2022-10-18T17:42:54.972Z,5.60
2022-10-18T17:45:51.730Z,5.50
2022-10-18T17:48:34.459Z,5.35
2022-10-18T17:51:33.535Z,5.33
2022-10-18T17:54:08.207Z,5.50
2022-10-18T17:57:03.172Z,5.80
2022-10-18T17:59:36.861Z,6.43
2022-10-18T18:02:11.271Z,7.53
2022-10-18T18:04:39.589Z,5.65
2022-10-18T18:07:07.747Z,5.97
2022-10-18T18:09:35.903Z,4.18
2022-10-18T18:12:05.702Z,4.35
2022-10-18T18:14:35.449Z,5.32
2022-10-18T18:17:04.925Z,3.90
2022-10-18T18:19:34.703Z,3.22
2022-10-18T18:22:05.267Z,3.00
2022-10-18T18:24:34.095Z,2.75
2022-10-18T18:27:03.013Z,3.35
2022-10-18T18:29:33.556Z,3.38
2022-10-18T18:32:03.462Z,2.55
2022-10-18T18:34:32.079Z,3.55
2022-10-18T18:37:04.908Z,4.78
2022-10-18T18:39:42.530Z,4.00
2022-10-18T18:42:12.874Z,3.10
2022-10-18T18:44:45.932Z,2.38
2022-10-18T18:49:42.868Z,2.42
2022-10-18T18:52:14.465Z,2.55
2022-10-18T18:54:46.157Z,3.20
2022-10-18T18:57:14.775Z,3.50
2022-10-18T18:59:43.824Z,2.90
2022-10-18T19:02:15.145Z,4.38
2022-10-18T19:04:44.847Z,4.10
2022-10-18T19:07:15.074Z,3.63
2022-10-18T19:09:44.564Z,3.75
2022-10-18T19:12:21.390Z,3.40
2022-10-18T19:14:49.708Z,3.47
2022-10-18T19:17:17.691Z,3.33
2022-10-18T19:19:46.843Z,3.03
2022-10-18T19:22:16.807Z,4.50
2022-10-18T19:24:45.052Z,4.38
2022-10-18T19:27:13.390Z,4.50
2022-10-18T19:29:43.924Z,4.20
2022-10-18T19:32:14.474Z,5.03
2022-10-18T19:34:43.560Z,3.95
2022-10-18T19:37:13.197Z,4.63
2022-10-18T19:39:43.707Z,4.53
2022-10-18T19:42:18.596Z,4.00
2022-10-18T19:44:50.732Z,3.90
2022-10-18T19:47:20.373Z,3.90
2022-10-18T19:49:49.127Z,4.47
2022-10-18T19:52:18.639Z,4.47
2022-10-18T19:54:50.057Z,4.28
2022-10-18T19:57:18.345Z,3.95
2022-10-18T19:59:46.317Z,4.88
2022-10-18T20:02:15.968Z,4.80
2022-10-18T20:04:44.040Z,4.60
2022-10-18T20:07:12.437Z,3.72
2022-10-18T20:09:41.569Z,4.00
2022-10-18T20:12:12.160Z,4.43
2022-10-18T20:14:40.337Z,3.38
2022-10-18T20:17:12.257Z,4.15
2022-10-18T20:19:41.067Z,3.88
2022-10-18T20:22:09.680Z,3.75
2022-10-18T20:24:37.809Z,4.22
2022-10-18T20:27:05.869Z,4.18
2022-10-18T20:29:35.701Z,4.30
2022-10-18T20:32:05.066Z,4.40
2022-10-18T20:34:33.861Z,4.07
2022-10-18T20:37:02.119Z,3.97
2022-10-18T20:39:30.357Z,4.45
2022-10-18T20:42:01.112Z,4.68
2022-10-18T20:44:31.827Z,4.22
2022-10-18T20:47:01.549Z,4.65
2022-10-18T20:49:29.683Z,5.05
2022-10-18T20:51:58.083Z,4.68
2022-10-18T20:54:26.389Z,5.18
2022-10-18T20:56:54.632Z,4.95
2022-10-18T20:59:22.807Z,4.50
2022-10-18T21:01:51.068Z,5.55
2022-10-18T21:04:20.789Z,5.93
2022-10-18T21:06:48.826Z,5.53
2022-10-18T21:09:19.523Z,5.43
2022-10-18T21:11:50.056Z,5.03
2022-10-18T21:14:20.549Z,5.65
2022-10-18T21:16:50.605Z,5.88
2022-10-18T21:19:22.444Z,5.55
2022-10-18T21:21:52.972Z,5.50
2022-10-18T21:24:23.479Z,5.40
2022-10-18T21:26:52.071Z,4.97
2022-10-18T21:29:22.950Z,5.57
2022-10-18T21:31:53.637Z,5.55
2022-10-18T21:34:23.397Z,6.30
2022-10-18T21:36:52.504Z,5.45
2022-10-18T21:39:27.548Z,5.88
2022-10-18T21:41:58.471Z,5.75
2022-10-18T21:44:28.361Z,6.43
2022-10-18T21:46:56.904Z,6.05
2022-10-18T21:49:29.418Z,6.18
2022-10-18T21:51:58.293Z,6.43
2022-10-18T21:54:26.343Z,6.18
2022-10-18T21:56:55.905Z,6.57
2022-10-18T21:59:25.168Z,6.22
2022-10-18T22:01:53.538Z,6.47
2022-10-18T22:04:25.768Z,6.30
2022-10-18T22:06:55.460Z,6.47
2022-10-18T22:09:23.856Z,6.40
2022-10-18T22:11:54.031Z,6.65
2022-10-18T22:14:22.956Z,6.82
2022-10-18T22:16:53.633Z,6.72
2022-10-18T22:19:23.510Z,7.60
2022-10-18T22:21:53.894Z,7.05
2022-10-18T22:24:23.498Z,7.68
2022-10-18T22:26:52.221Z,8.07
2022-10-18T22:29:25.135Z,8.50
2022-10-18T22:31:57.246Z,8.00
2022-10-18T22:34:27.751Z,8.95
2022-10-18T22:36:56.632Z,8.93
2022-10-18T22:39:26.470Z,9.50
2022-10-18T22:41:56.777Z,9.05
2022-10-18T22:44:25.156Z,9.27
2022-10-18T22:46:53.485Z,8.88
2022-10-18T22:49:21.721Z,9.35
2022-10-18T22:51:51.087Z,9.57
2022-10-18T22:54:21.036Z,8.75
2022-10-18T22:56:50.780Z,8.88
2022-10-18T22:59:19.464Z,9.80
2022-10-18T23:01:47.573Z,9.68
2022-10-18T23:04:17.331Z,9.27
2022-10-18T23:06:45.755Z,9.82
2022-10-18T23:09:13.759Z,10.10
2022-10-18T23:11:41.791Z,10.07
2022-10-18T23:14:11.565Z,10.10
2022-10-18T23:16:39.578Z,11.57
2022-10-18T23:19:07.933Z,11.55
2022-10-18T23:21:42.448Z,11.25
2022-10-18T23:24:10.740Z,12.27
2022-10-18T23:26:40.105Z,12.48
2022-10-18T23:29:08.633Z,11.95
2022-10-18T23:31:38.056Z,13.70
2022-10-18T23:34:09.815Z,13.20
2022-10-18T23:36:38.528Z,13.65
2022-10-18T23:39:07.386Z,14.02
2022-10-18T23:41:36.203Z,14.15
2022-10-18T23:44:04.255Z,14.88
2022-10-18T23:46:32.220Z,14.93
2022-10-18T23:49:04.839Z,15.18
2022-10-18T23:51:32.770Z,14.90
2022-10-18T23:54:02.522Z,15.50
2022-10-18T23:56:34.456Z,15.98
2022-10-18T23:59:05.498Z,15.10
